Time;durP1;ratioP1;P1;durP2;ratioP2;P2;SDS_P1;SDS_P2;PMS_P1;PMS_P2;Temp;Humidity;BMP_temperature;BMP_pressure;BME280_temperature;BME280_humidity;BME280_pressure;Samples;Min_cycle;Max_cycle;Signal;HPM_P1;HPM_P2
2023/02/19 00:01:30;;;;;;;;;;;;;;;22.68;34.79;95409.88;5098190;28;1353;-73
2023/02/19 00:04:00;;;;;;;;;;;;;;;22.76;34.57;95418.69;5088172;28;1973;-73
2023/02/19 00:06:29;;;;;;;;;;;;;;;22.68;34.78;95409.88;5099808;28;1134;-73
2023/02/19 00:08:55;;;;;;;;;;;;;;;22.87;34.33;95402.81;5097774;28;1244;-71
2023/02/19 00:11:22;;;;;;;;;;;;;;;22.98;34.24;95404.06;5096980;28;1261;-71
2023/02/19 00:13:48;;;;;;;;;;;;;;;22.94;34.06;95402.81;5085903;28;1103;-70
2023/02/19 00:16:17;;;;;;;;;;;;;;;22.88;34.14;95400.94;5094191;28;1411;-70
2023/02/19 00:18:43;;;;;;;;;;;;;;;22.89;34.20;95391.91;5091251;28;1384;-71
2023/02/19 00:21:08;;;;;;;;;;;;;;;22.90;34.42;95405.06;5087880;28;1516;-70
2023/02/19 00:23:33;;;;;;;;;;;;;;;22.92;34.65;95394.16;5091490;28;1902;-76
2023/02/19 00:26:05;;;;;;;;;;;;;;;22.98;34.75;95390.66;5085921;28;1412;-76
2023/02/19 00:28:30;;;;;;;;;;;;;;;23.03;34.84;95398.06;5086079;28;1126;-74
2023/02/19 00:30:55;;;;;;;;;;;;;;;22.97;34.66;95396.22;5098351;28;1416;-71
2023/02/19 00:33:21;;;;;;;;;;;;;;;22.95;34.83;95390.25;5094133;28;1309;-74
2023/02/19 00:35:46;;;;;;;;;;;;;;;23.04;34.95;95371.09;5087574;28;1484;-76
2023/02/19 00:38:11;;;;;;;;;;;;;;;23.02;34.72;95375.81;5092391;28;1280;-71
2023/02/19 00:40:37;;;;;;;;;;;;;;;23.08;34.69;95385.72;5090244;28;1400;-70
2023/02/19 00:43:02;;;;;;;;;;;;;;;23.03;35.11;95382.03;5093911;28;1468;-75
2023/02/19 00:45:27;;;;;;;;;;;;;;;23.06;35.00;95395.78;5102697;28;1893;-70
2023/02/19 00:47:53;;;;;;;;;;;;;;;22.97;35.05;95383.69;5085406;28;1399;-70
2023/02/19 00:50:18;;;;;;;;;;;;;;;22.87;35.16;95383.28;5100936;28;1424;-71
2023/02/19 00:52:43;;;;;;;;;;;;;;;22.85;35.28;95363.91;5092928;28;1482;-70
2023/02/19 00:55:09;;;;;;;;;;;;;;;22.88;35.84;95372.38;5087933;28;1435;-70
2023/02/19 00:57:34;;;;;;;;;;;;;;;23.09;35.59;95363.25;5099217;28;1264;-72
2023/02/19 00:59:59;;;;;;;;;;;;;;;23.08;35.11;95358.09;5101786;28;1261;-72
2023/02/19 01:02:25;;;;;;;;;;;;;;;23.17;35.46;95361.34;5091767;28;1233;-72
2023/02/19 01:04:51;;;;;;;;;;;;;;;23.24;35.37;95359.47;5076163;22;3564;-74
2023/02/19 01:07:16;;;;;;;;;;;;;;;23.28;35.19;95358.00;5056778;28;1386;-72
2023/02/19 01:09:41;;;;;;;;;;;;;;;23.29;34.95;95365.03;5059662;28;1532;-69
2023/02/19 01:12:06;;;;;;;;;;;;;;;23.21;35.21;95358.03;5068749;28;1473;-71
2023/02/19 01:14:32;;;;;;;;;;;;;;;23.15;35.63;95364.25;5071556;28;1221;-72
2023/02/19 01:16:57;;;;;;;;;;;;;;;22.97;35.47;95367.63;5072518;28;1431;-72
2023/02/19 01:19:22;;;;;;;;;;;;;;;22.97;35.77;95351.59;5069632;28;1372;-72
2023/02/19 01:21:47;;;;;;;;;;;;;;;22.82;35.99;95348.31;5062209;28;1414;-72
2023/02/19 01:24:13;;;;;;;;;;;;;;;22.87;35.86;95365.34;5073598;28;1898;-72
2023/02/19 01:26:39;;;;;;;;;;;;;;;22.75;36.19;95358.22;5069194;28;1484;-72
2023/02/19 01:29:04;;;;;;;;;;;;;;;22.77;38.50;95364.16;5059217;28;1404;-72
2023/02/19 01:31:29;;;;;;;;;;;;;;;22.84;35.87;95373.00;5068561;28;1419;-72
2023/02/19 01:33:57;;;;;;;;;;;;;;;22.77;36.16;95374.84;5063530;28;1142;-69
2023/02/19 01:36:22;;;;;;;;;;;;;;;22.53;36.37;95385.19;5069976;28;1443;-69
2023/02/19 01:38:48;;;;;;;;;;;;;;;22.67;36.39;95378.78;5054531;28;1474;-69
2023/02/19 01:41:24;;;;;;;;;;;;;;;22.71;36.07;95378.38;5067643;28;1407;-70
2023/02/19 01:44:00;;;;;;;;;;;;;;;22.75;36.05;95392.97;5064311;28;1894;-70
2023/02/19 01:46:26;;;;;;;;;;;;;;;22.72;36.25;95391.53;5053505;28;1353;-70
2023/02/19 01:48:53;;;;;;;;;;;;;;;22.68;36.52;95401.84;5070405;28;1392;-70
2023/02/19 01:51:18;;;;;;;;;;;;;;;22.56;36.84;95408.84;5066974;28;1197;-71
2023/02/19 01:53:46;;;;;;;;;;;;;;;22.71;36.62;95405.94;5071919;28;1419;-71
2023/02/19 01:56:15;;;;;;;;;;;;;;;22.72;36.22;95398.75;5056002;28;1270;-72
2023/02/19 01:58:40;;;;;;;;;;;;;;;22.67;36.63;95410.88;5072506;28;1408;-72
2023/02/19 02:01:07;;;;;;;;;;;;;;;22.65;36.70;95412.97;5068245;28;1183;-71
2023/02/19 02:03:33;;;;;;;;;;;;;;;22.67;36.58;95416.22;5056296;28;1342;-69
2023/02/19 02:06:01;;;;;;;;;;;;;;;22.61;36.80;95406.38;5049110;28;1967;-70
2023/02/19 02:11:11;;;;;;;;;;;;;;;22.51;37.24;95405.97;5048053;28;1158;-70
2023/02/19 02:13:37;;;;;;;;;;;;;;;22.64;37.26;95411.31;5048298;28;1448;-68
2023/02/19 02:16:22;;;;;;;;;;;;;;;22.66;36.90;95417.28;5045277;28;1222;-69
2023/02/19 02:19:06;;;;;;;;;;;;;;;22.89;36.81;95403.44;5037898;28;1404;-73
2023/02/19 02:21:37;;;;;;;;;;;;;;;22.93;36.38;95398.47;5050237;28;1284;-71
2023/02/19 02:24:12;;;;;;;;;;;;;;;22.93;36.54;95405.69;5040158;28;1957;-70
2023/02/19 02:26:40;;;;;;;;;;;;;;;22.88;36.81;95406.31;5041291;28;1194;-70
2023/02/19 02:29:05;;;;;;;;;;;;;;;22.87;36.76;95415.38;5056558;28;1371;-70
2023/02/19 02:31:34;;;;;;;;;;;;;;;22.86;37.12;95408.38;5051212;28;1245;-70
2023/02/19 02:34:11;;;;;;;;;;;;;;;22.77;37.03;95405.13;5057995;28;1285;-69
2023/02/19 02:36:38;;;;;;;;;;;;;;;22.85;37.09;95401.38;5057156;28;1501;-71
2023/02/19 02:39:06;;;;;;;;;;;;;;;22.95;37.10;95396.44;5055842;28;1223;-70
2023/02/19 02:41:32;;;;;;;;;;;;;;;23.06;37.19;95403.00;5029509;28;1137;-70
2023/02/19 02:43:57;;;;;;;;;;;;;;;22.94;38.36;95400.13;5052522;28;1902;-70
2023/02/19 02:46:26;;;;;;;;;;;;;;;22.93;37.21;95403.81;5049413;28;1298;-70
2023/02/19 02:48:55;;;;;;;;;;;;;;;22.95;37.14;95399.13;5036952;28;1057;-69
2023/02/19 02:51:23;;;;;;;;;;;;;;;22.86;37.62;95397.69;5037327;28;1310;-70
2023/02/19 02:56:40;;;;;;;;;;;;;;;22.96;37.23;95389.25;5056291;28;1334;-73
2023/02/19 02:59:07;;;;;;;;;;;;;;;22.88;37.58;95390.25;5059695;28;1277;-73
2023/02/19 03:05:50;;;;;;;;;;;;;;;23.04;37.33;95399.72;5046144;28;1977;-72
2023/02/19 03:07:28;;;;;;;;;;;;;;;22.91;38.11;95403.22;5067106;28;1134;-72
2023/02/19 03:09:55;;;;;;;;;;;;;;;23.03;37.50;95398.06;5063059;28;1201;-70
2023/02/19 03:20:38;;;;;;;;;;;;;;;22.90;37.88;95413.09;5049026;28;983;-69
2023/02/19 03:23:05;;;;;;;;;;;;;;;22.83;37.95;95420.31;5055509;28;1400;-69
2023/02/19 03:28:19;;;;;;;;;;;;;;;22.84;38.02;95426.50;5049956;28;1237;-68
2023/02/19 03:30:49;;;;;;;;;;;;;;;22.81;38.34;95437.63;5034735;28;1220;-71
2023/02/19 03:33:16;;;;;;;;;;;;;;;22.89;37.91;95434.72;5062693;28;1309;-72
2023/02/19 03:35:46;;;;;;;;;;;;;;;22.80;38.33;95444.81;5055748;28;1221;-71
2023/02/19 03:38:17;;;;;;;;;;;;;;;22.76;38.44;95443.56;5042419;28;1288;-69
2023/02/19 03:41:01;;;;;;;;;;;;;;;22.76;38.38;95446.25;5058745;28;1190;-68
2023/02/19 03:43:36;;;;;;;;;;;;;;;22.74;38.28;95458.19;5057326;28;1172;-69
2023/02/19 03:46:08;;;;;;;;;;;;;;;22.84;38.21;95458.59;5060208;28;1902;-68
2023/02/19 03:48:34;;;;;;;;;;;;;;;22.78;38.59;95459.44;5051520;28;1208;-69
2023/02/19 03:51:00;;;;;;;;;;;;;;;22.82;38.41;95466.81;5048001;28;1038;-68
2023/02/19 03:53:35;;;;;;;;;;;;;;;22.84;38.30;95455.91;5056333;28;1392;-69
2023/02/19 03:56:03;;;;;;;;;;;;;;;22.89;38.42;95462.28;5046742;28;1459;-69
2023/02/19 03:58:34;;;;;;;;;;;;;;;23.16;38.70;95458.75;5048182;28;1191;-70
2023/02/19 04:01:06;;;;;;;;;;;;;;;22.96;38.54;95467.66;5036627;28;1221;-70
2023/02/19 04:03:31;;;;;;;;;;;;;;;22.85;38.51;95466.44;5054876;28;1495;-70
2023/02/19 04:06:02;;;;;;;;;;;;;;;22.74;38.75;95463.53;5058673;28;1971;-70
2023/02/19 04:08:29;;;;;;;;;;;;;;;22.70;38.88;95468.47;5038785;28;1513;-70
2023/02/19 04:10:57;;;;;;;;;;;;;;;22.74;38.63;95468.88;5054684;28;1679;-70
2023/02/19 04:13:25;;;;;;;;;;;;;;;22.70;38.77;95475.69;5045484;28;1146;-70
2023/02/19 04:15:53;;;;;;;;;;;;;;;22.82;38.39;95474.03;5055746;28;1380;-70
2023/02/19 04:18:22;;;;;;;;;;;;;;;22.81;38.53;95481.22;5056603;28;1226;-70
2023/02/19 04:20:47;;;;;;;;;;;;;;;22.79;38.62;95477.13;5052096;28;1322;-70
2023/02/19 04:23:15;;;;;;;;;;;;;;;22.86;38.20;95480.63;5044467;28;1243;-70
2023/02/19 04:25:42;;;;;;;;;;;;;;;22.80;38.62;95468.09;5063550;28;1898;-70
2023/02/19 04:28:08;;;;;;;;;;;;;;;22.87;38.32;95475.03;5044445;28;1258;-70
2023/02/19 04:30:33;;;;;;;;;;;;;;;22.90;38.10;95471.94;5063748;28;1155;-70
2023/02/19 04:32:58;;;;;;;;;;;;;;;22.86;38.24;95477.94;5053166;28;1424;-69
2023/02/19 04:35:24;;;;;;;;;;;;;;;22.75;38.51;95487.41;5043843;28;1242;-69
2023/02/19 04:37:49;;;;;;;;;;;;;;;22.78;38.53;95480.84;5056286;28;1447;-69
2023/02/19 04:40:14;;;;;;;;;;;;;;;22.74;38.60;95495.63;5046962;28;1411;-69
2023/02/19 04:42:39;;;;;;;;;;;;;;;22.69;38.98;95482.91;5052947;28;1329;-69
2023/02/19 04:45:05;;;;;;;;;;;;;;;22.80;38.64;95487.63;5039197;28;1898;-69
2023/02/19 04:47:30;;;;;;;;;;;;;;;22.78;38.62;95483.50;5043909;28;1219;-69
2023/02/19 04:49:56;;;;;;;;;;;;;;;22.81;38.68;95483.09;5050121;28;1539;-69
2023/02/19 04:52:21;;;;;;;;;;;;;;;22.65;38.82;95482.50;5054474;28;804;-69
2023/02/19 04:54:47;;;;;;;;;;;;;;;22.72;38.78;95487.84;5051513;28;1230;-69
2023/02/19 04:57:12;;;;;;;;;;;;;;;22.69;38.81;95485.56;5042936;28;1129;-68
2023/02/19 04:59:37;;;;;;;;;;;;;;;22.77;38.76;95484.50;5059539;28;1171;-68
2023/02/19 05:02:03;;;;;;;;;;;;;;;22.71;39.07;95496.06;5054055;28;1113;-67
2023/02/19 05:04:28;;;;;;;;;;;;;;;22.58;39.43;95502.25;5053370;28;2073;-68
2023/02/19 05:06:53;;;;;;;;;;;;;;;22.60;39.39;95490.31;5054442;28;1134;-68
2023/02/19 05:09:18;;;;;;;;;;;;;;;22.71;39.04;95480.81;5045812;28;1408;-70
2023/02/19 05:11:44;;;;;;;;;;;;;;;22.94;39.15;95492.94;5050549;28;1309;-70
2023/02/19 05:14:09;;;;;;;;;;;;;;;22.98;38.52;95491.53;5049354;28;1173;-70
2023/02/19 05:16:34;;;;;;;;;;;;;;;23.06;38.41;95499.34;5049992;28;1277;-70
2023/02/19 05:19:00;;;;;;;;;;;;;;;22.92;38.59;95498.50;5062744;28;1196;-68
2023/02/19 05:21:25;;;;;;;;;;;;;;;22.81;39.11;95501.81;5040857;28;1315;-69
2023/02/19 05:23:50;;;;;;;;;;;;;;;22.86;39.41;95507.38;5051793;28;1953;-70
2023/02/19 05:26:18;;;;;;;;;;;;;;;23.01;39.24;95510.66;5050754;28;1126;-70
2023/02/19 05:28:44;;;;;;;;;;;;;;;23.08;39.07;95508.81;5060986;28;1193;-70
2023/02/19 05:31:10;;;;;;;;;;;;;;;23.08;39.02;95505.28;5051844;28;1133;-70
2023/02/19 05:33:36;;;;;;;;;;;;;;;23.17;38.85;95516.59;5048359;28;1285;-69
2023/02/19 05:36:04;;;;;;;;;;;;;;;23.10;39.20;95513.94;5053708;28;1496;-70
2023/02/19 05:38:29;;;;;;;;;;;;;;;23.17;38.56;95519.28;5053717;28;1380;-70
2023/02/19 05:40:55;;;;;;;;;;;;;;;23.15;38.93;95524.03;5049671;28;1195;-69
2023/02/19 05:43:20;;;;;;;;;;;;;;;23.31;38.67;95523.59;5052550;28;1323;-70
2023/02/19 05:45:45;;;;;;;;;;;;;;;23.18;38.72;95518.25;5054158;28;2179;-69
2023/02/19 05:48:11;;;;;;;;;;;;;;;23.13;38.47;95525.03;5056709;28;1436;-68
2023/02/19 05:50:37;;;;;;;;;;;;;;;23.01;38.61;95524.03;5044290;28;1494;-68
2023/02/19 05:53:03;;;;;;;;;;;;;;;22.94;38.68;95525.88;5049795;28;1142;-68
2023/02/19 05:55:28;;;;;;;;;;;;;;;22.92;38.63;95527.94;5042383;28;1242;-69
2023/02/19 05:57:54;;;;;;;;;;;;;;;22.90;38.85;95528.13;5046894;28;1408;-70
2023/02/19 06:00:20;;;;;;;;;;;;;;;22.97;38.60;95527.34;5052889;28;1190;-70
2023/02/19 06:02:45;;;;;;;;;;;;;;;22.98;38.81;95523.66;5056305;28;1744;-71
2023/02/19 06:05:11;;;;;;;;;;;;;;;22.84;39.08;95528.97;5042076;28;1981;-71
2023/02/19 06:07:38;;;;;;;;;;;;;;;22.94;38.75;95533.91;5043188;28;1404;-69
2023/02/19 06:10:04;;;;;;;;;;;;;;;22.86;39.08;95544.81;5056256;28;1420;-70
2023/02/19 06:12:29;;;;;;;;;;;;;;;22.82;38.99;95543.56;5050202;28;1425;-71
2023/02/19 06:14:54;;;;;;;;;;;;;;;22.92;39.78;95553.88;5040884;28;1491;-66
2023/02/19 06:17:20;;;;;;;;;;;;;;;23.18;32.12;95545.03;5035468;28;1252;-68
2023/02/19 06:19:45;;;;;;;;;;;;;;;20.97;28.56;95553.38;5052415;28;1304;-69
2023/02/19 06:22:12;;;;;;;;;;;;;;;19.23;28.36;95551.72;5065687;28;1364;-66
2023/02/19 06:24:38;;;;;;;;;;;;;;;18.56;29.30;95547.22;5044174;28;1898;-66
2023/02/19 06:27:07;;;;;;;;;;;;;;;18.48;28.19;95553.44;5057090;28;1380;-66
2023/02/19 06:29:32;;;;;;;;;;;;;;;18.02;28.75;95553.44;5056447;28;1304;-66
2023/02/19 06:31:58;;;;;;;;;;;;;;;17.84;29.11;95548.38;5059433;28;1109;-66
2023/02/19 06:34:23;;;;;;;;;;;;;;;17.43;30.03;95545.09;5051855;28;1153;-66
2023/02/19 06:36:48;;;;;;;;;;;;;;;17.55;29.56;95541.06;5043623;28;1416;-66
2023/02/19 06:39:14;;;;;;;;;;;;;;;17.24;29.78;95559.56;5044514;28;1456;-66
2023/02/19 06:41:39;;;;;;;;;;;;;;;16.95;30.17;95546.91;5053164;28;1372;-66
2023/02/19 06:44:04;;;;;;;;;;;;;;;17.51;29.04;95553.03;5055750;28;1968;-66
2023/02/19 06:46:30;;;;;;;;;;;;;;;17.56;29.17;95550.69;5056525;28;1181;-66
2023/02/19 06:48:55;;;;;;;;;;;;;;;17.84;28.92;95563.50;5051373;28;1184;-66
2023/02/19 06:51:25;;;;;;;;;;;;;;;17.56;29.34;95566.59;5040557;28;1221;-66
2023/02/19 06:53:51;;;;;;;;;;;;;;;17.60;29.20;95569.72;5041008;28;1119;-66
2023/02/19 06:56:27;;;;;;;;;;;;;;;17.62;28.81;95568.56;5051894;28;1189;-67
2023/02/19 06:58:53;;;;;;;;;;;;;;;17.70;29.10;95568.53;5053879;28;1178;-65
2023/02/19 07:01:18;;;;;;;;;;;;;;;17.59;29.39;95563.59;5054501;28;1479;-65
2023/02/19 07:03:43;;;;;;;;;;;;;;;18.14;29.31;95553.84;5043328;28;1372;-66
2023/02/19 07:06:09;;;;;;;;;;;;;;;18.14;29.35;95562.63;5050389;28;1965;-66
2023/02/19 07:08:34;;;;;;;;;;;;;;;18.23;29.34;95568.72;5050945;28;1174;-66
2023/02/19 07:10:59;;;;;;;;;;;;;;;18.26;29.23;95571.03;5044095;28;1243;-66
2023/02/19 07:13:25;;;;;;;;;;;;;;;18.33;29.15;95569.31;5038806;28;1441;-67
2023/02/19 07:15:51;;;;;;;;;;;;;;;18.34;29.15;95559.50;5046462;28;1423;-66
2023/02/19 07:18:16;;;;;;;;;;;;;;;18.44;28.57;95557.41;5069071;28;1444;-66
2023/02/19 07:20:42;;;;;;;;;;;;;;;18.55;28.95;95564.16;5037145;28;1291;-66
2023/02/19 07:23:07;;;;;;;;;;;;;;;18.54;28.62;95554.53;5054067;28;1156;-67
2023/02/19 07:25:32;;;;;;;;;;;;;;;18.74;28.65;95549.56;5041504;28;1957;-66
2023/02/19 07:27:58;;;;;;;;;;;;;;;18.66;28.39;95547.78;5047694;28;1376;-68
2023/02/19 07:30:23;;;;;;;;;;;;;;;18.52;28.31;95541.41;5053140;28;1060;-68
2023/02/19 07:32:48;;;;;;;;;;;;;;;18.71;28.43;95537.44;5055676;28;868;-68
2023/02/19 07:35:13;;;;;;;;;;;;;;;18.92;28.21;95539.41;5047416;28;1139;-67
2023/02/19 07:37:39;;;;;;;;;;;;;;;18.96;28.23;95532.75;5042615;28;1198;-67
2023/02/19 07:40:05;;;;;;;;;;;;;;;19.09;27.96;95532.09;5052729;28;1114;-67
2023/02/19 07:42:30;;;;;;;;;;;;;;;19.14;27.93;95534.22;5051046;28;1377;-67
2023/02/19 07:44:55;;;;;;;;;;;;;;;19.18;27.92;95525.69;5047360;28;1934;-67
2023/02/19 07:47:21;;;;;;;;;;;;;;;19.25;27.88;95523.09;5035688;28;1220;-67
2023/02/19 07:49:46;;;;;;;;;;;;;;;19.34;27.87;95529.97;5045774;28;1194;-68
2023/02/19 07:52:11;;;;;;;;;;;;;;;19.50;27.73;95536.94;5054025;28;1051;-67
2023/02/19 07:54:36;;;;;;;;;;;;;;;19.69;27.76;95530.22;5051812;28;1123;-68
2023/02/19 07:57:02;;;;;;;;;;;;;;;19.71;27.58;95529.03;5050105;28;1156;-67
2023/02/19 07:59:27;;;;;;;;;;;;;;;19.81;27.47;95535.88;5045071;28;1147;-68
2023/02/19 08:04:36;;;;;;;;;;;;;;;19.81;27.33;95530.56;5048423;28;1973;-68
2023/02/19 08:07:01;;;;;;;;;;;;;;;19.96;27.54;95529.50;5051591;28;1333;-68
2023/02/19 08:09:27;;;;;;;;;;;;;;;19.93;27.22;95529.06;5058495;28;1400;-68
2023/02/19 08:14:36;;;;;;;;;;;;;;;20.20;27.31;95517.66;5048649;28;1279;-67
2023/02/19 08:17:02;;;;;;;;;;;;;;;20.52;27.01;95526.16;5059430;28;1312;-67
2023/02/19 08:19:27;;;;;;;;;;;;;;;20.56;26.98;95510.63;5049473;28;1181;-68
2023/02/19 08:21:52;;;;;;;;;;;;;;;20.61;27.49;95513.53;5044351;28;1138;-68
2023/02/19 08:24:18;;;;;;;;;;;;;;;20.61;27.84;95518.88;5049943;28;1965;-74
2023/02/19 08:26:43;;;;;;;;;;;;;;;20.89;27.17;95517.03;5040236;28;1120;-72
2023/02/19 08:29:08;;;;;;;;;;;;;;;20.91;26.56;95516.00;5056369;28;1263;-71
2023/02/19 08:31:34;;;;;;;;;;;;;;;20.97;26.57;95521.38;5059922;28;1054;-71
2023/02/19 08:33:59;;;;;;;;;;;;;;;20.95;26.04;95509.28;5043231;28;1439;-69
2023/02/19 08:36:25;;;;;;;;;;;;;;;20.88;26.04;95514.53;5050334;28;1205;-69
2023/02/19 08:38:50;;;;;;;;;;;;;;;20.85;26.06;95513.09;5051907;28;1332;-69
2023/02/19 08:41:15;;;;;;;;;;;;;;;21.00;26.03;95528.16;5053453;28;1312;-68
2023/02/19 08:43:41;;;;;;;;;;;;;;;21.06;26.53;95527.38;5057735;28;1484;-71
2023/02/19 08:46:08;;;;;;;;;;;;;;;21.29;26.73;95519.94;5047519;28;1901;-68
2023/02/19 08:48:34;;;;;;;;;;;;;;;21.55;27.20;95518.44;5053271;28;1480;-69
2023/02/19 08:51:02;;;;;;;;;;;;;;;21.59;27.46;95508.19;5054756;28;1389;-69
2023/02/19 08:53:27;;;;;;;;;;;;;;;21.74;27.29;95501.69;5054731;28;1231;-70
2023/02/19 08:55:53;;;;;;;;;;;;;;;21.81;27.50;95516.91;5038393;28;1351;-70
2023/02/19 08:58:18;;;;;;;;;;;;;;;21.86;27.42;95509.09;5033122;28;1078;-68
2023/02/19 09:00:43;;;;;;;;;;;;;;;21.91;27.46;95511.97;5047836;28;1205;-69
2023/02/19 09:03:09;;;;;;;;;;;;;;;21.91;27.81;95501.28;5053939;28;1295;-69
2023/02/19 09:05:34;;;;;;;;;;;;;;;21.90;27.82;95494.31;5051428;28;1934;-69
2023/02/19 09:07:59;;;;;;;;;;;;;;;21.89;27.63;95490.81;5043352;28;1234;-69
2023/02/19 09:10:25;;;;;;;;;;;;;;;22.01;27.95;95485.72;5052443;28;1337;-69
2023/02/19 09:12:50;;;;;;;;;;;;;;;22.05;27.64;95478.94;5039000;28;1993;-68
2023/02/19 09:15:15;;;;;;;;;;;;;;;22.09;27.70;95484.72;5046786;28;1182;-69
2023/02/19 09:17:40;;;;;;;;;;;;;;;21.98;27.71;95462.06;5053669;28;880;-68
2023/02/19 09:20:06;;;;;;;;;;;;;;;22.14;27.70;95477.72;5035257;28;1336;-68
2023/02/19 09:22:31;;;;;;;;;;;;;;;22.16;27.88;95472.16;5048597;28;1138;-69
2023/02/19 09:24:57;;;;;;;;;;;;;;;22.17;27.87;95469.34;5047490;28;1963;-68
2023/02/19 09:27:22;;;;;;;;;;;;;;;22.23;27.97;95471.19;5042538;28;1213;-69
2023/02/19 09:29:47;;;;;;;;;;;;;;;22.25;27.95;95456.78;5043572;28;1304;-69
2023/02/19 09:32:12;;;;;;;;;;;;;;;22.28;27.80;95465.19;5043265;28;1135;-70
2023/02/19 09:34:38;;;;;;;;;;;;;;;22.30;28.03;95465.00;5041031;28;1345;-69
2023/02/19 09:37:04;;;;;;;;;;;;;;;22.30;27.96;95473.03;5051544;28;1157;-69
2023/02/19 09:39:29;;;;;;;;;;;;;;;22.32;28.07;95454.94;5050836;28;1149;-69
2023/02/19 09:42:00;;;;;;;;;;;;;;;22.34;27.99;95466.22;5042917;28;1301;-69
2023/02/19 09:44:34;;;;;;;;;;;;;;;22.32;28.10;95449.59;5033484;28;1959;-69
2023/02/19 09:47:00;;;;;;;;;;;;;;;22.34;28.00;95452.88;5038817;28;1185;-69
2023/02/19 09:49:25;;;;;;;;;;;;;;;22.38;28.06;95464.81;5035227;28;1068;-69
2023/02/19 09:52:10;;;;;;;;;;;;;;;22.38;28.06;95454.13;5034554;28;1034;-69
2023/02/19 09:54:37;;;;;;;;;;;;;;;22.41;28.21;95445.69;5045589;28;1227;-69
2023/02/19 09:57:03;;;;;;;;;;;;;;;22.40;28.09;95446.72;5051254;28;1166;-69
2023/02/19 09:59:32;;;;;;;;;;;;;;;22.43;28.30;95443.63;5045747;28;1138;-69
2023/02/19 10:02:10;;;;;;;;;;;;;;;22.44;28.25;95437.25;5034576;28;1106;-69
2023/02/19 10:04:36;;;;;;;;;;;;;;;22.44;28.13;95427.38;5033847;28;1914;-69
2023/02/19 10:07:02;;;;;;;;;;;;;;;22.45;28.31;95413.00;5051383;28;1209;-69
2023/02/19 10:09:28;;;;;;;;;;;;;;;22.47;28.21;95420.78;5045561;28;1134;-69
2023/02/19 10:11:54;;;;;;;;;;;;;;;22.50;28.17;95417.69;5049577;28;1093;-69
2023/02/19 10:14:35;;;;;;;;;;;;;;;22.52;28.37;95407.63;5051260;28;1507;-69
2023/02/19 10:17:02;;;;;;;;;;;;;;;22.52;28.20;95401.47;5040833;28;1139;-69
2023/02/19 10:19:28;;;;;;;;;;;;;;;22.53;28.22;95390.53;5048840;28;983;-69
2023/02/19 10:21:55;;;;;;;;;;;;;;;22.52;28.29;95398.78;5051201;28;1201;-68
2023/02/19 10:24:23;;;;;;;;;;;;;;;22.51;28.48;95392.59;5047319;28;1965;-68
2023/02/19 10:26:49;;;;;;;;;;;;;;;22.50;28.41;95377.59;5031749;28;1131;-68
2023/02/19 10:29:14;;;;;;;;;;;;;;;22.48;28.55;95378.84;5045859;28;1146;-69
2023/02/19 10:31:39;;;;;;;;;;;;;;;22.46;28.36;95373.72;5033689;28;1117;-69
2023/02/19 10:34:15;;;;;;;;;;;;;;;22.49;28.36;95370.63;5047932;28;1135;-68
2023/02/19 10:36:43;;;;;;;;;;;;;;;22.49;28.66;95359.91;5052321;28;1324;-68
2023/02/19 10:39:21;;;;;;;;;;;;;;;22.51;28.36;95357.03;5040216;28;1202;-68
2023/02/19 10:41:47;;;;;;;;;;;;;;;22.53;28.65;95355.78;5039377;28;1197;-68
2023/02/19 10:44:12;;;;;;;;;;;;;;;22.52;28.51;95353.34;5051097;28;1909;-69
2023/02/19 10:46:48;;;;;;;;;;;;;;;22.51;28.59;95352.50;5046696;28;1245;-69
2023/02/19 10:49:26;;;;;;;;;;;;;;;22.55;28.42;95336.88;5049319;28;1189;-69
2023/02/19 10:51:53;;;;;;;;;;;;;;;22.58;28.22;95331.91;5054124;28;1134;-69
2023/02/19 10:54:27;;;;;;;;;;;;;;;22.68;28.55;95326.97;5055251;28;1193;-73
2023/02/19 10:56:53;;;;;;;;;;;;;;;22.61;27.17;95326.16;5055897;28;1408;-73
2023/02/19 10:59:26;;;;;;;;;;;;;;;22.64;27.63;95317.69;5049056;28;1389;-71
2023/02/19 11:01:58;;;;;;;;;;;;;;;22.66;27.96;95318.31;5040181;28;1438;-69
2023/02/19 11:04:24;;;;;;;;;;;;;;;22.76;27.88;95311.69;5054026;28;1910;-70
2023/02/19 11:06:50;;;;;;;;;;;;;;;22.74;27.96;95301.22;5050128;28;1242;-71
2023/02/19 11:09:33;;;;;;;;;;;;;;;22.75;28.03;95294.03;5056277;28;1257;-71
2023/02/19 11:11:58;;;;;;;;;;;;;;;22.72;28.00;95292.59;5046637;28;1265;-71
2023/02/19 11:14:24;;;;;;;;;;;;;;;22.69;28.24;95295.69;5052499;28;1349;-71
2023/02/19 11:16:57;;;;;;;;;;;;;;;22.70;28.41;95291.16;5054051;28;1222;-71
2023/02/19 11:19:22;;;;;;;;;;;;;;;22.68;28.16;95286.84;5055683;28;1388;-71
2023/02/19 11:21:47;;;;;;;;;;;;;;;22.67;28.24;95282.50;5053613;28;1207;-71
2023/02/19 11:24:21;;;;;;;;;;;;;;;22.69;28.44;95279.66;5049055;28;1890;-71
2023/02/19 11:26:47;;;;;;;;;;;;;;;22.70;28.25;95275.09;5065863;28;1233;-70
2023/02/19 11:29:18;;;;;;;;;;;;;;;22.68;28.41;95272.63;5075220;28;1369;-71
2023/02/19 11:31:43;;;;;;;;;;;;;;;22.66;28.24;95264.84;5063215;28;1389;-71
2023/02/19 11:34:19;;;;;;;;;;;;;;;22.67;28.47;95257.63;5048007;28;1373;-71
2023/02/19 11:36:45;;;;;;;;;;;;;;;22.67;28.50;95254.97;5042606;28;1219;-71
2023/02/19 11:39:16;;;;;;;;;;;;;;;22.66;28.35;95256.00;5060672;28;1208;-71
2023/02/19 11:41:44;;;;;;;;;;;;;;;22.66;28.57;95251.47;5072921;28;1428;-71
2023/02/19 11:44:13;;;;;;;;;;;;;;;22.65;28.23;95235.63;5059772;28;1898;-71
2023/02/19 11:46:44;;;;;;;;;;;;;;;22.65;28.62;95247.16;5046343;28;1341;-71
2023/02/19 11:49:28;;;;;;;;;;;;;;;22.66;28.58;95243.44;5042801;28;1205;-71
2023/02/19 11:52:10;;;;;;;;;;;;;;;22.67;28.59;95236.22;5068263;28;1209;-71
2023/02/19 11:54:47;;;;;;;;;;;;;;;22.66;28.44;95227.41;5071527;28;1578;-71
2023/02/19 11:57:21;;;;;;;;;;;;;;;22.67;28.67;95222.88;5061350;28;1609;-71
2023/02/19 11:59:50;;;;;;;;;;;;;;;22.68;28.58;95220.00;5057585;28;1321;-71
2023/02/19 12:02:31;;;;;;;;;;;;;;;22.69;28.61;95207.44;5064644;28;1396;-71
2023/02/19 12:05:15;;;;;;;;;;;;;;;22.69;28.62;95215.47;5054785;28;1910;-71
2023/02/19 12:07:57;;;;;;;;;;;;;;;22.71;28.40;95208.03;5058008;28;1467;-71
2023/02/19 12:10:28;;;;;;;;;;;;;;;22.71;28.64;95202.66;5057712;28;1317;-71
2023/02/19 12:13:12;;;;;;;;;;;;;;;22.70;28.78;95197.56;5055480;28;1455;-71
2023/02/19 12:15:37;;;;;;;;;;;;;;;22.71;28.79;95201.84;5054809;28;1471;-71
2023/02/19 12:18:05;;;;;;;;;;;;;;;22.72;28.71;95192.81;5065378;28;1471;-71
2023/02/19 12:20:41;;;;;;;;;;;;;;;22.72;28.31;95195.50;5055012;28;1427;-71
2023/02/19 12:23:20;;;;;;;;;;;;;;;22.72;28.66;95182.94;5047162;28;1269;-71
2023/02/19 12:25:46;;;;;;;;;;;;;;;22.72;28.60;95168.75;5033718;28;1964;-71
2023/02/19 12:28:29;;;;;;;;;;;;;;;22.73;28.70;95167.69;5047892;28;1464;-71
2023/02/19 12:31:15;;;;;;;;;;;;;;;22.72;28.63;95168.75;5067274;28;1349;-70
2023/02/19 12:33:59;;;;;;;;;;;;;;;22.72;28.53;95163.41;5068603;28;1353;-71
2023/02/19 12:36:50;;;;;;;;;;;;;;;22.71;28.77;95156.41;5060319;28;1420;-71
2023/02/19 12:39:16;;;;;;;;;;;;;;;22.70;28.78;95146.75;5036449;28;1618;-71
2023/02/19 12:41:43;;;;;;;;;;;;;;;22.70;28.84;95147.56;5060332;28;1404;-71
2023/02/19 12:44:17;;;;;;;;;;;;;;;22.70;28.58;95138.72;5045143;28;1902;-71
2023/02/19 12:46:46;;;;;;;;;;;;;;;22.70;28.48;95128.03;5057190;28;1145;-71
2023/02/19 12:49:15;;;;;;;;;;;;;;;22.70;28.66;95125.34;5055947;28;1295;-71
2023/02/19 12:51:57;;;;;;;;;;;;;;;22.71;28.53;95122.44;5037854;28;1165;-71
2023/02/19 12:54:22;;;;;;;;;;;;;;;22.71;28.82;95110.94;5041426;28;1276;-71
2023/02/19 12:57:02;;;;;;;;;;;;;;;22.71;28.69;95100.22;5050741;28;1307;-71
2023/02/19 12:59:31;;;;;;;;;;;;;;;22.71;28.89;95095.69;5050145;28;2181;-71
2023/02/19 13:01:56;;;;;;;;;;;;;;;22.73;28.90;95092.81;5041649;28;1119;-71
2023/02/19 13:04:45;;;;;;;;;;;;;;;22.73;28.85;95092.81;5033727;28;1997;-71
2023/02/19 13:07:10;;;;;;;;;;;;;;;22.74;28.85;95081.06;5031767;28;1316;-71
2023/02/19 13:09:42;;;;;;;;;;;;;;;22.76;28.89;95076.34;5036407;28;1205;-71
2023/02/19 13:12:13;;;;;;;;;;;;;;;22.77;28.89;95072.63;5052808;28;1467;-71
2023/02/19 13:14:51;;;;;;;;;;;;;;;22.79;28.81;95082.06;5046733;28;1400;-71
2023/02/19 13:17:19;;;;;;;;;;;;;;;22.78;28.85;95075.09;5025814;28;1571;-71
2023/02/19 13:19:47;;;;;;;;;;;;;;;22.79;28.84;95067.88;5056997;28;1249;-71
2023/02/19 13:25:17;;;;;;;;;;;;;;;22.79;28.75;95054.50;5063780;28;1902;-71
2023/02/19 13:27:49;;;;;;;;;;;;;;;22.79;28.68;95059.84;5053749;28;1384;-70
2023/02/19 13:30:39;;;;;;;;;;;;;;;22.79;28.86;95046.47;5068023;28;1360;-71